Time;durP1;ratioP1;P1;durP2;ratioP2;P2;SDS_P1;SDS_P2;PMS_P1;PMS_P2;Temp;Humidity;BMP_temperature;BMP_pressure;BME280_temperature;BME280_humidity;BME280_pressure;Samples;Min_cycle;Max_cycle;Signal;HPM_P1;HPM_P2
2023/09/11 00:01:22;;;;;;;12.07;8.17;;;24.90;99.90;;;;;;4933411;29;20193;-74
2023/09/11 00:03:49;;;;;;;9.20;7.40;;;24.90;99.90;;;;;;4934722;29;20296;-74
2023/09/11 00:06:15;;;;;;;8.80;7.80;;;24.90;99.90;;;;;;4916618;29;20178;-74
2023/09/11 00:08:41;;;;;;;9.03;7.17;;;24.80;99.90;;;;;;4925060;29;20578;-74
2023/09/11 00:11:07;;;;;;;10.50;6.80;;;24.80;99.90;;;;;;4924606;29;20587;-74
2023/09/11 00:13:32;;;;;;;11.83;7.60;;;24.80;99.90;;;;;;4934642;29;20201;-74
2023/09/11 00:15:58;;;;;;;9.47;7.53;;;24.80;99.90;;;;;;4917611;29;20640;-74
2023/09/11 00:18:24;;;;;;;8.37;7.40;;;24.80;99.90;;;;;;4934474;29;20173;-74
2023/09/11 00:20:50;;;;;;;7.27;6.57;;;24.70;99.90;;;;;;4917246;29;20183;-74
2023/09/11 00:23:16;;;;;;;7.43;6.73;;;24.70;99.90;;;;;;4932932;29;20632;-73
2023/09/11 00:25:41;;;;;;;8.20;7.30;;;24.70;99.90;;;;;;4917276;29;20588;-74
2023/09/11 00:28:07;;;;;;;8.73;7.83;;;24.60;99.90;;;;;;4934460;29;20653;-74
2023/09/11 00:30:34;;;;;;;10.30;7.10;;;24.60;99.90;;;;;;4917180;29;20567;-74
2023/09/11 00:33:00;;;;;;;9.67;7.20;;;24.60;99.90;;;;;;4933060;29;20201;-74
2023/09/11 00:35:26;;;;;;;9.27;6.90;;;24.50;99.90;;;;;;4940293;29;20641;-74
2023/09/11 00:37:51;;;;;;;8.03;7.23;;;24.50;99.90;;;;;;4917181;29;20185;-74
2023/09/11 00:40:17;;;;;;;8.30;6.67;;;24.50;99.90;;;;;;4932745;29;20656;-74
2023/09/11 00:42:43;;;;;;;7.27;6.50;;;24.50;99.90;;;;;;4911316;29;20541;-74
2023/09/11 00:45:10;;;;;;;9.07;8.27;;;24.40;99.90;;;;;;4929711;29;20649;-74
2023/09/11 00:47:36;;;;;;;10.77;7.77;;;24.40;99.90;;;;;;4913968;29;20276;-74
2023/09/11 00:50:02;;;;;;;8.30;7.53;;;24.40;99.90;;;;;;4885289;29;20680;-74
2023/09/11 00:52:28;;;;;;;8.97;7.13;;;24.40;99.90;;;;;;4932779;29;20521;-74
2023/09/11 00:54:54;;;;;;;7.47;6.67;;;24.40;99.90;;;;;;4916600;29;20655;-74
2023/09/11 00:57:21;;;;;;;9.27;8.20;;;24.30;99.90;;;;;;4933818;29;20181;-74
2023/09/11 00:59:50;;;;;;;8.97;7.13;;;24.30;99.90;;;;;;4932318;29;20959;-74
2023/09/11 01:02:17;;;;;;;7.77;7.07;;;24.20;99.90;;;;;;4900780;29;20585;-74
2023/09/11 01:04:44;;;;;;;9.67;8.67;;;24.10;99.90;;;;;;4925643;29;20736;-74
2023/09/11 01:07:19;;;;;;;8.33;7.30;;;24.10;99.90;;;;;;4924178;29;20603;-75
2023/09/11 01:09:45;;;;;;;10.50;7.20;;;24.10;99.90;;;;;;4924189;29;21131;-75
2023/09/11 01:12:11;;;;;;;8.13;7.03;;;24.10;99.90;;;;;;4922794;29;20207;-74
2023/09/11 01:14:37;;;;;;;7.70;6.97;;;24.00;99.90;;;;;;4921305;29;20705;-75
2023/09/11 01:17:09;;;;;;;7.13;6.40;;;24.00;99.90;;;;;;4897474;29;20184;-74
2023/09/11 01:20:05;;;;;;;11.00;7.77;;;24.00;99.90;;;;;;4932026;29;20585;-75
2023/09/11 01:23:08;;;;;;;7.50;6.80;;;23.90;99.90;;;;;;4932415;29;20589;-75
2023/09/11 01:25:49;;;;;;;10.07;8.00;;;23.90;99.90;;;;;;4925076;29;20600;-74
2023/09/11 01:28:47;;;;;;;7.70;6.90;;;23.90;99.90;;;;;;4931943;29;20770;-74
2023/09/11 01:31:13;;;;;;;11.13;7.33;;;23.80;99.90;;;;;;4923914;29;20597;-74
2023/09/11 01:33:38;;;;;;;9.03;6.50;;;23.90;99.90;;;;;;4908113;29;20629;-75
2023/09/11 01:36:04;;;;;;;8.30;7.50;;;23.80;99.90;;;;;;4931784;29;20683;-74
2023/09/11 01:38:30;;;;;;;9.50;6.60;;;23.70;99.90;;;;;;4932108;29;20181;-74
2023/09/11 01:40:59;;;;;;;7.33;6.63;;;23.70;99.90;;;;;;4931770;29;20589;-74
2023/09/11 01:43:29;;;;;;;12.27;7.57;;;23.70;99.90;;;;;;4924038;29;20219;-74
2023/09/11 01:45:54;;;;;;;9.53;7.20;;;23.70;99.90;;;;;;4926720;29;20597;-74
2023/09/11 01:48:22;;;;;;;11.60;8.10;;;23.70;99.90;;;;;;4923930;29;20590;-74
2023/09/11 01:50:48;;;;;;;8.30;6.77;;;23.70;99.90;;;;;;4923893;29;20560;-74
2023/09/11 01:53:14;;;;;;;8.70;6.63;;;23.60;99.90;;;;;;4922387;29;20616;-74
2023/09/11 01:55:41;;;;;;;11.80;7.50;;;23.60;99.90;;;;;;4925793;29;20633;-74
2023/09/11 01:58:07;;;;;;;8.07;6.13;;;23.60;99.90;;;;;;4915241;29;20597;-74
2023/09/11 02:00:33;;;;;;;7.27;6.50;;;23.50;99.90;;;;;;4915877;29;20636;-74
2023/09/11 02:02:59;;;;;;;12.33;7.50;;;23.50;99.90;;;;;;4908419;29;20609;-74
2023/09/11 02:05:26;;;;;;;10.03;6.93;;;23.50;99.90;;;;;;4931700;29;20740;-74
2023/09/11 02:07:52;;;;;;;9.17;7.77;;;23.50;99.90;;;;;;4908148;29;20684;-74
2023/09/11 02:10:18;;;;;;;10.57;6.90;;;23.40;99.90;;;;;;4929457;29;20181;-74
2023/09/11 02:12:43;;;;;;;11.50;6.83;;;23.40;99.90;;;;;;4920716;29;20654;-74
2023/09/11 02:15:09;;;;;;;8.43;6.63;;;23.40;99.90;;;;;;4905446;29;20640;-74
2023/09/11 02:17:35;;;;;;;8.80;7.60;;;23.30;99.90;;;;;;4919838;29;20182;-74
2023/09/11 02:20:01;;;;;;;16.60;6.93;;;23.30;99.90;;;;;;4931059;29;20548;-74
2023/09/11 02:22:27;;;;;;;8.80;6.77;;;23.30;99.90;;;;;;4935112;29;20185;-74
2023/09/11 02:24:53;;;;;;;8.50;7.73;;;23.30;99.90;;;;;;4933821;29;20659;-74
2023/09/11 02:27:19;;;;;;;7.30;6.13;;;23.30;99.90;;;;;;4901516;29;20960;-74
2023/09/11 02:29:44;;;;;;;8.60;6.77;;;23.30;99.90;;;;;;4921185;29;20177;-75
2023/09/11 02:32:10;;;;;;;12.87;8.47;;;23.30;99.90;;;;;;4919308;29;20185;-74
2023/09/11 02:34:36;;;;;;;11.00;7.30;;;23.20;99.90;;;;;;4930709;29;20204;-74
2023/09/11 02:37:02;;;;;;;10.63;7.67;;;23.20;99.90;;;;;;4903619;29;20185;-74
2023/09/11 02:39:28;;;;;;;9.57;7.80;;;23.10;99.90;;;;;;4931852;29;20582;-73
2023/09/11 02:41:54;;;;;;;10.10;8.70;;;23.10;99.90;;;;;;4924148;29;20597;-74
2023/09/11 02:44:20;;;;;;;8.10;7.30;;;23.10;99.90;;;;;;4911185;29;20628;-74
2023/09/11 02:46:46;;;;;;;8.43;7.63;;;23.10;99.90;;;;;;4926555;29;20194;-74
2023/09/11 02:49:11;;;;;;;8.70;7.10;;;23.10;99.90;;;;;;4931643;29;20934;-74
2023/09/11 02:51:37;;;;;;;9.10;7.87;;;23.00;99.90;;;;;;4909050;29;20189;-74
2023/09/11 02:54:03;;;;;;;8.90;6.37;;;23.00;99.90;;;;;;4911408;29;20212;-74
2023/09/11 02:56:28;;;;;;;10.13;7.20;;;23.00;99.90;;;;;;4936918;29;20177;-74
2023/09/11 02:58:54;;;;;;;11.63;7.10;;;23.00;99.90;;;;;;4937178;29;20612;-74
2023/09/11 03:01:20;;;;;;;9.30;7.30;;;22.90;99.90;;;;;;4909622;29;20667;-74
2023/09/11 03:03:46;;;;;;;8.43;7.30;;;22.90;99.90;;;;;;4900093;29;20197;-74
2023/09/11 03:06:12;;;;;;;14.80;9.77;;;22.90;99.90;;;;;;4924353;29;20309;-74
2023/09/11 03:08:37;;;;;;;11.30;7.83;;;22.90;99.90;;;;;;4924360;29;20676;-74
2023/09/11 03:11:09;;;;;;;9.37;7.20;;;22.80;99.90;;;;;;4907502;29;20176;-74
2023/09/11 03:13:37;;;;;;;10.80;7.70;;;22.80;99.90;;;;;;4889311;29;20612;-74
2023/09/11 03:16:11;;;;;;;8.93;6.80;;;22.80;99.90;;;;;;4927840;29;20600;-74
2023/09/11 03:18:38;;;;;;;14.23;7.47;;;22.80;99.90;;;;;;4930361;29;20600;-74
2023/09/11 03:21:04;;;;;;;11.10;7.23;;;22.70;99.90;;;;;;4922682;29;20588;-74
2023/09/11 03:23:30;;;;;;;7.33;6.50;;;22.70;99.90;;;;;;4926062;29;20642;-74
2023/09/11 03:25:56;;;;;;;9.77;7.13;;;22.70;99.90;;;;;;4918522;29;20676;-74
2023/09/11 03:28:25;;;;;;;7.53;6.73;;;22.70;99.90;;;;;;4927457;29;20586;-74
2023/09/11 03:30:52;;;;;;;13.20;8.60;;;22.70;99.90;;;;;;4920119;29;20594;-74
2023/09/11 03:33:17;;;;;;;8.47;7.07;;;22.70;99.90;;;;;;4930646;29;20993;-74
2023/09/11 03:35:46;;;;;;;8.57;7.43;;;22.60;99.90;;;;;;4924642;29;20209;-75
2023/09/11 03:38:13;;;;;;;13.30;7.13;;;22.60;99.90;;;;;;4911924;29;20189;-75
2023/09/11 03:40:39;;;;;;;9.07;7.33;;;22.60;99.90;;;;;;4917783;29;20997;-74
2023/09/11 03:43:05;;;;;;;8.70;6.07;;;22.60;99.90;;;;;;4933688;29;20628;-74
2023/09/11 03:45:31;;;;;;;10.67;7.60;;;22.50;99.90;;;;;;4902004;29;20661;-75
2023/09/11 03:47:56;;;;;;;9.90;6.70;;;22.50;99.90;;;;;;4928846;29;20949;-74
2023/09/11 03:50:22;;;;;;;8.67;7.20;;;22.50;99.90;;;;;;4900411;29;20193;-75
2023/09/11 03:52:48;;;;;;;9.23;6.60;;;22.50;99.90;;;;;;4902083;29;20184;-74
2023/09/11 03:55:14;;;;;;;8.17;7.40;;;22.50;99.90;;;;;;4934735;29;20996;-74
2023/09/11 03:57:40;;;;;;;9.00;6.60;;;22.40;99.90;;;;;;4917728;29;20192;-74
2023/09/11 04:00:10;;;;;;;9.53;6.43;;;22.40;99.90;;;;;;4917815;29;20585;-74
2023/09/11 04:02:38;;;;;;;11.37;7.40;;;22.40;99.90;;;;;;4934817;29;20211;-75
2023/09/11 04:05:05;;;;;;;7.23;6.53;;;22.40;99.90;;;;;;4933608;29;20589;-75
2023/09/11 04:07:32;;;;;;;8.03;7.23;;;22.40;99.90;;;;;;4933332;29;20748;-75
2023/09/11 04:09:58;;;;;;;11.37;7.80;;;22.40;99.90;;;;;;4934425;29;20991;-75
2023/09/11 04:12:24;;;;;;;6.80;6.10;;;22.40;99.90;;;;;;4915503;29;20585;-75
2023/09/11 04:14:50;;;;;;;10.40;5.90;;;22.30;99.90;;;;;;4919616;29;20676;-74
2023/09/11 04:17:16;;;;;;;17.17;8.20;;;22.30;99.90;;;;;;4932547;29;20600;-74
2023/09/11 04:19:42;;;;;;;7.17;6.43;;;22.30;99.90;;;;;;4918207;29;20600;-74
2023/09/11 04:22:10;;;;;;;9.50;7.17;;;22.30;99.90;;;;;;4909639;29;20604;-74
2023/09/11 04:24:36;;;;;;;8.00;7.10;;;22.30;99.90;;;;;;4906276;29;21213;-74
2023/09/11 04:27:02;;;;;;;10.10;7.80;;;22.20;99.90;;;;;;4897122;29;21190;-74
2023/09/11 04:29:31;;;;;;;12.43;7.10;;;22.30;99.90;;;;;;4930831;29;20589;-74
2023/09/11 04:31:57;;;;;;;8.47;7.00;;;22.20;99.90;;;;;;4896428;29;20625;-74
2023/09/11 04:34:23;;;;;;;7.00;6.30;;;22.20;99.90;;;;;;4915523;29;20657;-75
2023/09/11 04:36:49;;;;;;;8.27;6.10;;;22.20;99.90;;;;;;4911034;29;20962;-75
2023/09/11 04:39:15;;;;;;;8.73;6.10;;;22.20;99.90;;;;;;4932269;29;20597;-75
2023/09/11 04:41:41;;;;;;;8.37;6.33;;;22.20;99.90;;;;;;4924724;29;20548;-75
2023/09/11 04:44:08;;;;;;;8.50;5.97;;;22.20;99.90;;;;;;4901443;29;20613;-75
2023/09/11 04:46:33;;;;;;;8.57;6.60;;;22.20;99.90;;;;;;4932703;29;20652;-76
2023/09/11 04:48:59;;;;;;;13.40;6.70;;;22.10;99.90;;;;;;4932233;29;20600;-75
2023/09/11 04:51:25;;;;;;;12.60;7.57;;;22.10;99.90;;;;;;4924422;29;20647;-75
2023/09/11 04:53:51;;;;;;;12.63;7.50;;;22.10;99.90;;;;;;4932568;29;20212;-75
2023/09/11 04:56:16;;;;;;;9.43;6.20;;;22.10;99.90;;;;;;4908737;29;20173;-74
2023/09/11 04:58:42;;;;;;;7.33;6.37;;;22.10;99.90;;;;;;4932494;29;20782;-75
2023/09/11 05:01:08;;;;;;;7.93;6.27;;;22.10;99.90;;;;;;4900780;29;20188;-75
2023/09/11 05:03:35;;;;;;;13.20;6.20;;;22.10;99.90;;;;;;4924340;29;20652;-75
2023/09/11 05:06:01;;;;;;;9.17;6.23;;;22.10;99.90;;;;;;4932515;29;21184;-75
2023/09/11 05:08:27;;;;;;;6.60;5.40;;;22.10;99.90;;;;;;4916468;29;20245;-75
2023/09/11 05:10:52;;;;;;;9.33;7.40;;;22.10;99.90;;;;;;4927058;29;20186;-75
2023/09/11 05:13:18;;;;;;;11.40;6.00;;;22.10;99.90;;;;;;4905986;29;20204;-75
2023/09/11 05:15:45;;;;;;;10.23;6.63;;;22.10;99.90;;;;;;4900802;29;20628;-75
2023/09/11 05:18:11;;;;;;;5.83;5.03;;;22.10;99.90;;;;;;4916567;29;20600;-75
2023/09/11 05:20:37;;;;;;;8.27;5.90;;;22.10;99.90;;;;;;4920090;29;20586;-75
2023/09/11 05:23:05;;;;;;;11.83;6.77;;;22.10;99.90;;;;;;4916291;29;20219;-75
2023/09/11 05:25:31;;;;;;;11.30;7.00;;;22.10;99.90;;;;;;4929714;29;20607;-75
2023/09/11 05:27:57;;;;;;;7.60;6.20;;;22.10;99.90;;;;;;4922370;29;20658;-75
2023/09/11 05:30:22;;;;;;;7.20;5.60;;;22.20;99.90;;;;;;4921721;29;20601;-75
2023/09/11 05:32:51;;;;;;;7.20;6.50;;;22.20;99.90;;;;;;4924441;29;20185;-75
2023/09/11 05:35:19;;;;;;;8.37;6.40;;;22.20;99.90;;;;;;4931831;29;20208;-75
2023/09/11 05:37:44;;;;;;;8.63;5.33;;;22.20;99.90;;;;;;4932161;29;20680;-74
2023/09/11 05:40:10;;;;;;;10.63;6.00;;;22.20;99.90;;;;;;4916035;29;21224;-75
2023/09/11 05:42:36;;;;;;;10.60;6.50;;;22.20;99.90;;;;;;4933138;29;20172;-75
2023/09/11 05:45:02;;;;;;;8.53;5.90;;;22.30;99.90;;;;;;4916658;29;20585;-75
2023/09/11 05:47:27;;;;;;;10.60;6.40;;;22.30;99.90;;;;;;4933272;29;20213;-75
2023/09/11 05:49:53;;;;;;;11.77;6.57;;;22.30;99.90;;;;;;4933105;29;20585;-75
2023/09/11 05:52:19;;;;;;;11.23;7.00;;;22.30;99.90;;;;;;4933380;29;20185;-75
2023/09/11 05:54:45;;;;;;;10.30;5.77;;;22.30;99.90;;;;;;4919759;29;20921;-75
2023/09/11 05:57:10;;;;;;;11.77;7.10;;;22.30;99.90;;;;;;4928835;29;20181;-75
2023/09/11 05:59:37;;;;;;;12.13;6.27;;;22.30;99.90;;;;;;4903627;29;20592;-74
2023/09/11 06:02:03;;;;;;;9.47;6.60;;;22.40;99.90;;;;;;4935895;29;20189;-76
2023/09/11 06:04:30;;;;;;;11.43;6.80;;;22.50;99.90;;;;;;4936980;29;20624;-75
2023/09/11 06:06:56;;;;;;;13.40;6.80;;;22.50;99.90;;;;;;4937061;29;20220;-76
2023/09/11 06:09:22;;;;;;;14.73;6.93;;;22.50;99.90;;;;;;4926819;29;21486;-75
2023/09/11 06:11:47;;;;;;;9.57;6.57;;;22.50;99.90;;;;;;4908454;29;20630;-75
2023/09/11 06:14:13;;;;;;;9.93;5.97;;;22.60;99.90;;;;;;4925660;29;20276;-76
2023/09/11 06:16:39;;;;;;;6.27;5.67;;;22.70;99.90;;;;;;4911137;29;20244;-75
2023/09/11 06:19:04;;;;;;;10.87;5.90;;;22.70;99.90;;;;;;4934945;29;20192;-75
2023/09/11 06:21:30;;;;;;;8.47;6.03;;;22.70;99.90;;;;;;4919324;29;20181;-75
2023/09/11 06:23:56;;;;;;;9.07;5.90;;;22.80;99.90;;;;;;4919309;29;20208;-75
2023/09/11 06:26:21;;;;;;;10.77;6.27;;;22.80;99.90;;;;;;4907529;29;20181;-75
2023/09/11 06:28:47;;;;;;;11.77;6.37;;;22.90;99.90;;;;;;4925742;29;20184;-76
2023/09/11 06:31:13;;;;;;;11.63;6.67;;;23.00;99.90;;;;;;4927306;29;20208;-76
2023/09/11 06:33:39;;;;;;;12.17;6.70;;;23.10;99.90;;;;;;4909566;29;20197;-76
2023/09/11 06:36:04;;;;;;;10.77;6.20;;;23.10;99.90;;;;;;4920764;29;20644;-76
2023/09/11 06:38:30;;;;;;;8.77;4.83;;;23.20;99.90;;;;;;4927642;29;20189;-76
2023/09/11 06:40:56;;;;;;;7.53;5.63;;;23.30;99.90;;;;;;4929974;23;20237;-76
2023/09/11 06:43:22;;;;;;;10.10;5.20;;;23.50;99.90;;;;;;4930215;29;20205;-77
2023/09/11 06:45:52;;;;;;;9.53;5.70;;;23.50;99.90;;;;;;4945033;28;20620;-77
2023/09/11 06:48:18;;;;;;;9.40;5.93;;;23.70;99.90;;;;;;4952491;29;20600;-77
2023/09/11 06:50:44;;;;;;;14.00;5.80;;;23.80;99.90;;;;;;4936381;29;20960;-76
2023/09/11 06:53:10;;;;;;;12.00;5.80;;;23.90;99.90;;;;;;4951282;29;20620;-76
2023/09/11 06:55:43;;;;;;;10.93;5.93;;;24.10;99.90;;;;;;4959268;28;20659;-77
2023/09/11 06:58:09;;;;;;;11.63;5.60;;;24.40;99.90;;;;;;4934448;29;20192;-77
2023/09/11 07:00:34;;;;;;;9.90;5.30;;;24.90;99.90;;;;;;4935547;29;20983;-76
2023/09/11 07:03:00;;;;;;;8.00;5.03;;;25.50;99.90;;;;;;4947723;29;20861;-79
2023/09/11 07:05:27;;;;;;;7.30;5.07;;;26.30;99.90;;;;;;4937086;29;20722;-78
2023/09/11 07:07:56;;;;;;;7.93;4.17;;;27.00;99.90;;;;;;4954875;29;20690;-78
2023/09/11 07:10:22;;;;;;;14.00;5.10;;;27.90;99.90;;;;;;4953452;29;20584;-78
2023/09/11 07:12:49;;;;;;;11.80;4.50;;;28.80;99.90;;;;;;4920639;29;20621;-77
2023/09/11 07:15:18;;;;;;;10.37;5.17;;;29.70;99.90;;;;;;4941892;29;20632;-78
2023/09/11 07:17:45;;;;;;;13.03;5.23;;;30.20;99.90;;;;;;4947987;29;20598;-79
2023/09/11 07:20:12;;;;;;;7.33;4.17;;;30.80;99.90;;;;;;4936049;29;20743;-80
2023/09/11 07:22:38;;;;;;;10.23;4.43;;;31.20;99.90;;;;;;4937296;29;20716;-79
2023/09/11 07:25:11;;;;;;;10.43;5.23;;;31.60;99.90;;;;;;4943925;29;20597;-79
2023/09/11 07:27:38;;;;;;;11.23;5.00;;;32.00;99.90;;;;;;4943189;28;20616;-80
2023/09/11 07:30:05;;;;;;;6.70;4.03;;;32.40;99.90;;;;;;4918336;29;20604;-80
2023/09/11 07:32:31;;;;;;;11.53;4.10;;;32.70;99.90;;;;;;4927631;29;20627;-79
2023/09/11 07:34:57;;;;;;;6.77;4.40;;;33.00;99.90;;;;;;4935967;29;20778;-79
2023/09/11 07:37:23;;;;;;;9.70;3.80;;;33.20;99.90;;;;;;4935311;29;20669;-80
2023/09/11 07:39:49;;;;;;;9.83;4.83;;;33.40;99.90;;;;;;4910934;29;20583;-80
2023/09/11 07:42:15;;;;;;;8.23;3.70;;;33.50;99.90;;;;;;4917628;29;20224;-78
2023/09/11 07:44:42;;;;;;;7.53;4.40;;;33.70;99.90;;;;;;4918029;29;20181;-79
2023/09/11 07:47:08;;;;;;;9.90;4.30;;;34.00;99.90;;;;;;4944952;29;20191;-80
2023/09/11 07:49:33;;;;;;;8.20;3.87;;;34.30;99.90;;;;;;4952672;29;20588;-78
2023/09/11 07:51:59;;;;;;;5.43;3.17;;;34.50;99.90;;;;;;4929416;29;20204;-79
2023/09/11 07:54:24;;;;;;;6.60;3.07;;;34.90;99.60;;;;;;4921717;29;20272;-79
2023/09/11 07:56:52;;;;;;;8.27;2.83;;;35.30;99.10;;;;;;4938128;29;20268;-78
2023/09/11 07:59:18;;;;;;;8.00;4.10;;;35.80;98.80;;;;;;4954949;29;20236;-80
2023/09/11 08:01:44;;;;;;;7.17;3.70;;;36.40;97.30;;;;;;4961167;28;20636;-78
2023/09/11 08:04:09;;;;;;;7.83;4.00;;;36.70;95.50;;;;;;4948330;29;20684;-78
2023/09/11 08:06:35;;;;;;;7.50;4.23;;;37.00;93.70;;;;;;4959751;29;20187;-77
2023/09/11 08:09:03;;;;;;;13.73;4.93;;;37.00;91.40;;;;;;4924934;29;20216;-78
2023/09/11 08:11:30;;;;;;;7.27;3.70;;;37.10;90.50;;;;;;4919592;29;20282;-78
2023/09/11 08:13:56;;;;;;;6.30;3.23;;;37.30;89.10;;;;;;4953938;29;20591;-78
2023/09/11 08:16:22;;;;;;;8.30;3.90;;;37.40;85.80;;;;;;4953532;28;20588;-79
2023/09/11 08:18:48;;;;;;;4.60;2.90;;;37.70;86.40;;;;;;4938111;29;20589;-80
2023/09/11 08:21:14;;;;;;;6.87;3.77;;;38.20;84.90;;;;;;4944710;28;20219;-78
2023/09/11 08:23:44;;;;;;;8.20;4.10;;;38.50;81.30;;;;;;4944794;29;20663;-80
2023/09/11 08:26:10;;;;;;;11.00;5.57;;;38.60;78.70;;;;;;4934831;29;20641;-79
2023/09/11 08:28:36;;;;;;;6.73;3.20;;;38.90;77.60;;;;;;4934483;29;21140;-80
2023/09/11 08:31:03;;;;;;;6.87;3.77;;;39.20;75.50;;;;;;4925730;28;20592;-80
2023/09/11 08:33:29;;;;;;;5.37;3.30;;;39.40;73.00;;;;;;4929716;29;20647;-81
2023/09/11 08:35:54;;;;;;;6.77;3.40;;;39.80;73.40;;;;;;4941340;28;20696;-81
2023/09/11 08:38:20;;;;;;;7.57;3.20;;;40.30;71.10;;;;;;4924927;29;21144;-81
2023/09/11 08:40:46;;;;;;;6.70;2.80;;;40.40;68.10;;;;;;4933923;29;20177;-80
2023/09/11 08:43:12;;;;;;;5.10;2.97;;;40.30;66.30;;;;;;4945014;29;20291;-81
2023/09/11 08:45:38;;;;;;;7.47;3.40;;;40.40;63.90;;;;;;4919130;29;20192;-82
2023/09/11 08:48:15;;;;;;;7.87;3.50;;;40.60;63.40;;;;;;4918518;28;20188;-83
2023/09/11 08:51:00;;;;;;;7.97;3.90;;;40.60;61.20;;;;;;4949474;29;20601;-83
2023/09/11 08:53:30;;;;;;;7.87;2.90;;;40.70;60.90;;;;;;4944489;29;20995;-83
2023/09/11 08:55:57;;;;;;;5.37;2.93;;;40.60;59.20;;;;;;4945354;29;20643;-85
2023/09/11 08:58:24;;;;;;;5.40;2.77;;;40.10;58.10;;;;;;4950716;28;20604;-85
2023/09/11 09:00:50;;;;;;;7.30;3.43;;;40.00;58.30;;;;;;4936777;29;20623;-85
2023/09/11 09:03:18;;;;;;;11.30;3.07;;;40.10;58.40;;;;;;4953164;29;20603;-85
2023/09/11 09:05:44;;;;;;;7.53;2.87;;;40.10;58.50;;;;;;4951772;29;20620;-84
2023/09/11 09:08:12;;;;;;;6.03;3.23;;;40.40;58.30;;;;;;4939535;29;21175;-84
2023/09/11 09:10:40;;;;;;;6.97;3.27;;;40.50;57.60;;;;;;4951255;29;20596;-84
2023/09/11 09:13:06;;;;;;;7.63;3.20;;;40.60;56.40;;;;;;4947966;28;20616;-84
2023/09/11 09:15:35;;;;;;;8.27;3.20;;;40.70;56.20;;;;;;4914761;29;20748;-83
2023/09/11 09:18:01;;;;;;;7.60;3.97;;;40.70;55.10;;;;;;4939076;29;20592;-84
2023/09/11 09:20:31;;;;;;;7.87;3.27;;;40.90;55.70;;;;;;4932252;29;20589;-84
2023/09/11 09:22:58;;;;;;;6.90;3.97;;;41.10;54.30;;;;;;4947011;28;20200;-86
2023/09/11 09:25:25;;;;;;;10.57;4.10;;;41.30;53.10;;;;;;4938847;28;20624;-84
2023/09/11 09:27:52;;;;;;;4.93;3.43;;;41.20;52.70;;;;;;4926592;29;20593;-85
2023/09/11 09:30:32;;;;;;;7.40;3.23;;;41.20;52.60;;;;;;4938605;29;20607;-84
2023/09/11 09:33:01;;;;;;;7.67;3.57;;;41.30;52.20;;;;;;4941058;29;20612;-83
2023/09/11 09:35:33;;;;;;;9.57;3.50;;;41.50;53.20;;;;;;4945382;29;20599;-83
2023/09/11 09:38:00;;;;;;;9.20;4.17;;;41.80;52.40;;;;;;4949339;29;20608;-84
2023/09/11 09:40:30;;;;;;;9.93;3.67;;;42.00;50.90;;;;;;4934397;29;20600;-85
2023/09/11 09:42:58;;;;;;;5.40;3.10;;;42.00;51.20;;;;;;4952752;28;20730;-85
2023/09/11 09:45:29;;;;;;;8.10;3.27;;;42.10;50.10;;;;;;4953015;29;20647;-86
2023/09/11 09:48:21;;;;;;;6.60;3.13;;;42.00;49.80;;;;;;4952488;29;20679;-86
2023/09/11 09:50:51;;;;;;;5.10;3.37;;;42.00;49.20;;;;;;4935222;29;20632;-86
2023/09/11 09:53:41;;;;;;;8.97;3.17;;;41.90;48.70;;;;;;4944147;29;21150;-85
2023/09/11 09:56:08;;;;;;;9.17;2.67;;;41.90;49.40;;;;;;4924312;29;20643;-86
2023/09/11 09:58:36;;;;;;;8.07;2.97;;;42.10;48.80;;;;;;4934468;29;20588;-85
2023/09/11 10:01:08;;;;;;;7.30;3.10;;;42.00;48.40;;;;;;4949536;29;20588;-86
2023/09/11 10:03:50;;;;;;;3.70;3.00;;;41.90;47.70;;;;;;4916364;29;20639;-87
2023/09/11 10:06:27;;;;;;;7.07;3.40;;;41.90;48.20;;;;;;4939816;29;20742;-86
2023/09/11 10:09:14;;;;;;;6.30;3.07;;;42.20;47.80;;;;;;4935178;29;20596;-84
2023/09/11 10:11:41;;;;;;;6.40;2.83;;;42.20;48.00;;;;;;4925634;29;20703;-85
2023/09/11 10:14:08;;;;;;;6.23;2.73;;;42.50;47.40;;;;;;4929442;29;20610;-85
2023/09/11 10:16:34;;;;;;;7.20;2.60;;;42.80;47.40;;;;;;4921436;29;20600;-84
2023/09/11 10:19:00;;;;;;;3.93;3.03;;;42.80;47.00;;;;;;4940807;29;20588;-87
2023/09/11 10:21:27;;;;;;;5.73;3.13;;;42.90;46.50;;;;;;4932149;29;20204;-86
2023/09/11 10:23:54;;;;;;;8.03;3.10;;;43.00;46.60;;;;;;4936480;29;20624;-84
2023/09/11 10:26:36;;;;;;;5.40;3.80;;;43.30;46.30;;;;;;4923164;29;20648;-85
2023/09/11 10:29:08;;;;;;;6.93;3.20;;;43.70;46.50;;;;;;4944832;28;20691;-83
2023/09/11 10:32:01;;;;;;;5.80;3.00;;;43.90;45.10;;;;;;4919580;29;20633;-84
2023/09/11 10:34:28;;;;;;;5.17;2.60;;;44.00;45.30;;;;;;4932448;29;20600;-83
2023/09/11 10:36:57;;;;;;;4.53;2.20;;;44.40;45.20;;;;;;4939035;29;20693;-83
2023/09/11 10:39:23;;;;;;;5.00;2.73;;;44.50;44.30;;;;;;4951089;28;20595;-83
2023/09/11 10:41:49;;;;;;;6.03;2.80;;;44.70;44.20;;;;;;4953243;28;21245;-83
2023/09/11 10:44:15;;;;;;;5.90;2.60;;;44.90;43.70;;;;;;4948273;29;20211;-84
2023/09/11 10:46:50;;;;;;;4.53;2.47;;;45.00;43.10;;;;;;4919838;29;20592;-84
2023/09/11 10:49:18;;;;;;;7.07;2.87;;;45.30;42.50;;;;;;4949385;29;20600;-82
2023/09/11 10:51:49;;;;;;;7.27;3.00;;;45.40;42.80;;;;;;4955633;28;20616;-84
2023/09/11 10:54:16;;;;;;;7.93;3.10;;;45.50;42.10;;;;;;4957369;28;20599;-84
2023/09/11 10:56:50;;;;;;;8.67;3.70;;;45.50;41.80;;;;;;4938651;29;20599;-84
2023/09/11 10:59:16;;;;;;;5.23;2.83;;;45.50;41.50;;;;;;4922546;29;20612;-83
2023/09/11 11:01:45;;;;;;;11.60;3.03;;;45.50;41.50;;;;;;4938005;29;20628;-84
2023/09/11 11:04:17;;;;;;;5.27;3.00;;;45.40;40.50;;;;;;4954196;29;20598;-83
2023/09/11 11:06:45;;;;;;;8.40;3.33;;;44.90;39.50;;;;;;4921538;29;20584;-83
2023/09/11 11:09:30;;;;;;;9.00;3.17;;;44.50;39.80;;;;;;4948598;29;20981;-84
2023/09/11 11:12:03;;;;;;;8.57;2.53;;;44.30;40.30;;;;;;4937097;29;20651;-83
2023/09/11 11:14:29;;;;;;;7.27;3.10;;;44.20;40.50;;;;;;4938561;29;20604;-82
2023/09/11 11:17:10;;;;;;;6.60;2.93;;;44.30;40.70;;;;;;4954411;29;20685;-83
2023/09/11 11:20:00;;;;;;;5.47;2.60;;;44.20;40.10;;;;;;4946069;29;20687;-83
2023/09/11 11:22:32;;;;;;;4.47;2.70;;;43.90;40.50;;;;;;4935799;29;20628;-83
2023/09/11 11:24:58;;;;;;;10.30;4.23;;;43.90;40.40;;;;;;4934856;29;20636;-82
2023/09/11 11:27:24;;;;;;;7.13;2.97;;;43.90;40.10;;;;;;4949400;29;20596;-84
2023/09/11 11:29:52;;;;;;;6.70;3.10;;;43.60;40.10;;;;;;4955189;29;20592;-85
2023/09/11 11:32:23;;;;;;;9.77;2.93;;;43.50;39.90;;;;;;4924754;29;21225;-84
2023/09/11 11:34:52;;;;;;;5.17;3.17;;;43.40;40.20;;;;;;4942212;29;20686;-84
2023/09/11 11:37:20;;;;;;;6.37;3.63;;;43.40;40.10;;;;;;4948913;29;20608;-83
2023/09/11 11:39:47;;;;;;;6.13;2.83;;;43.20;40.30;;;;;;4929382;29;20588;-84
2023/09/11 11:42:14;;;;;;;4.37;3.07;;;43.20;40.40;;;;;;4948149;29;20648;-82
2023/09/11 11:44:43;;;;;;;5.03;2.70;;;43.20;40.50;;;;;;4950633;29;20650;-83
2023/09/11 11:47:08;;;;;;;4.90;2.90;;;43.30;40.30;;;;;;4951664;29;20585;-86
2023/09/11 11:49:36;;;;;;;5.10;2.23;;;43.30;40.40;;;;;;4939227;29;20689;-84
2023/09/11 11:52:03;;;;;;;4.13;2.93;;;43.40;40.10;;;;;;4910041;29;20191;-85
2023/09/11 11:54:29;;;;;;;4.27;2.77;;;43.30;40.00;;;;;;4940844;29;20577;-84
2023/09/11 11:57:03;;;;;;;6.57;2.83;;;43.30;39.70;;;;;;4953309;29;20651;-84
2023/09/11 11:59:31;;;;;;;7.43;3.47;;;43.20;39.80;;;;;;4902092;29;20934;-84
2023/09/11 12:01:58;;;;;;;7.50;2.50;;;43.20;39.70;;;;;;4936639;29;20616;-83
2023/09/11 12:04:24;;;;;;;4.67;2.67;;;43.10;39.60;;;;;;4930128;29;20696;-83
2023/09/11 12:06:54;;;;;;;6.93;3.13;;;43.10;39.60;;;;;;4941662;29;20604;-85
2023/09/11 12:09:21;;;;;;;5.40;2.87;;;42.90;39.30;;;;;;4940922;29;20584;-83
2023/09/11 12:11:49;;;;;;;5.10;3.10;;;42.80;39.30;;;;;;4936768;29;20624;-84
2023/09/11 12:14:16;;;;;;;5.60;2.37;;;42.60;39.20;;;;;;4914197;29;20589;-85
2023/09/11 12:16:43;;;;;;;4.47;2.97;;;42.40;39.00;;;;;;4952841;29;21210;-85
2023/09/11 12:19:09;;;;;;;5.57;2.97;;;42.00;39.00;;;;;;4952988;29;20611;-83
2023/09/11 12:21:35;;;;;;;7.07;3.33;;;41.70;38.90;;;;;;4958134;29;20647;-86
2023/09/11 12:24:01;;;;;;;8.23;3.80;;;41.10;38.80;;;;;;4965835;29;20614;-83
2023/09/11 12:26:29;;;;;;;6.27;3.47;;;40.60;39.40;;;;;;4966091;29;20615;-84
2023/09/11 12:28:58;;;;;;;5.30;3.67;;;40.30;39.80;;;;;;4932779;29;20947;-84
2023/09/11 12:31:24;;;;;;;6.13;2.90;;;40.00;39.90;;;;;;4946346;29;20612;-84
2023/09/11 12:33:58;;;;;;;5.60;3.33;;;39.80;40.30;;;;;;4944903;29;20953;-84
2023/09/11 12:36:30;;;;;;;4.80;3.30;;;39.50;40.30;;;;;;4923745;29;20252;-84
2023/09/11 12:38:57;;;;;;;7.17;3.70;;;39.20;40.50;;;;;;4934477;29;20595;-84
2023/09/11 12:41:24;;;;;;;3.13;2.10;;;39.00;40.80;;;;;;4951269;28;20666;-85
2023/09/11 12:43:50;;;;;;;7.40;3.80;;;39.00;41.30;;;;;;4948835;29;20586;-84
2023/09/11 12:46:16;;;;;;;10.10;3.50;;;38.90;41.80;;;;;;4938424;29;21008;-83